Time;durP1;ratioP1;P1;durP2;ratioP2;P2;SDS_P1;SDS_P2;PMS_P1;PMS_P2;Temp;Humidity;BMP_temperature;BMP_pressure;BME280_temperature;BME280_humidity;BME280_pressure;Samples;Min_cycle;Max_cycle;Signal;HPM_P1;HPM_P2
2021/01/11 00:01:27;;;;;;;36.80;19.90;;;4.10;93.90;;;;;;5112097;28;20035;-66
2021/01/11 00:03:53;;;;;;;33.50;20.87;;;4.10;93.90;;;;;;5111404;28;20035;-66
2021/01/11 00:06:18;;;;;;;33.07;19.33;;;4.10;93.90;;;;;;5093562;28;20046;-67
2021/01/11 00:08:47;;;;;;;34.73;20.73;;;4.00;93.90;;;;;;5110166;28;20040;-67
2021/01/11 00:11:21;;;;;;;37.23;21.13;;;4.00;94.00;;;;;;5111903;28;20039;-67
2021/01/11 00:13:47;;;;;;;36.10;22.13;;;4.00;93.90;;;;;;5111224;28;20031;-65
2021/01/11 00:16:16;;;;;;;33.53;19.83;;;4.00;93.90;;;;;;5093473;28;20062;-68
2021/01/11 00:18:42;;;;;;;34.57;20.33;;;4.00;94.20;;;;;;5093087;28;20028;-67
2021/01/11 00:21:07;;;;;;;36.23;21.50;;;4.00;94.00;;;;;;5111772;28;20686;-67
2021/01/11 00:23:33;;;;;;;40.40;23.33;;;4.00;94.00;;;;;;5111460;28;20076;-67
2021/01/11 00:25:59;;;;;;;38.33;22.50;;;4.00;94.00;;;;;;5092926;28;20035;-68
2021/01/11 00:28:25;;;;;;;40.57;23.23;;;4.00;94.00;;;;;;5111624;28;20069;-67
2021/01/11 00:30:51;;;;;;;42.03;24.03;;;4.00;94.00;;;;;;5111241;28;20039;-68
2021/01/11 00:33:17;;;;;;;40.97;23.47;;;4.00;94.10;;;;;;5111331;28;20046;-67
2021/01/11 00:35:42;;;;;;;37.47;23.07;;;4.00;94.10;;;;;;5093062;28;20028;-68
2021/01/11 00:38:08;;;;;;;44.00;24.60;;;4.10;94.10;;;;;;5111165;28;20035;-67
2021/01/11 00:40:34;;;;;;;40.07;23.83;;;4.00;94.10;;;;;;5111600;28;20450;-66
2021/01/11 00:43:00;;;;;;;40.23;23.93;;;4.00;94.10;;;;;;5111133;28;20151;-67
2021/01/11 00:45:26;;;;;;;39.83;22.53;;;4.10;94.20;;;;;;5110707;28;20036;-67
2021/01/11 00:47:51;;;;;;;39.73;23.10;;;4.10;94.20;;;;;;5111546;28;20031;-66
2021/01/11 00:50:17;;;;;;;43.97;23.77;;;4.10;94.40;;;;;;5092806;28;20407;-64
2021/01/11 00:52:45;;;;;;;40.97;23.10;;;4.10;94.10;;;;;;5093278;28;20039;-67
2021/01/11 00:55:19;;;;;;;44.73;24.47;;;4.10;94.10;;;;;;5092411;28;20040;-67
2021/01/11 00:57:57;;;;;;;47.90;24.40;;;4.10;94.10;;;;;;5078175;28;20290;-67
2021/01/11 01:00:25;;;;;;;45.10;23.60;;;4.10;94.20;;;;;;5092492;28;20032;-67
2021/01/11 01:03:11;;;;;;;46.57;24.33;;;4.10;94.20;;;;;;5110205;28;20040;-67
2021/01/11 01:05:37;;;;;;;47.50;23.37;;;4.10;94.20;;;;;;5092381;28;20527;-67
2021/01/11 01:08:03;;;;;;;45.67;24.83;;;4.10;94.20;;;;;;5111204;28;20035;-67
2021/01/11 01:10:29;;;;;;;48.40;24.00;;;4.10;94.20;;;;;;5110910;28;20080;-67
2021/01/11 01:12:54;;;;;;;44.13;23.37;;;4.10;94.20;;;;;;5115138;28;20424;-67
2021/01/11 01:15:20;;;;;;;43.80;22.67;;;4.10;94.30;;;;;;5114750;28;20487;-67
2021/01/11 01:17:46;;;;;;;38.60;21.20;;;4.10;94.30;;;;;;5114820;28;20127;-67
2021/01/11 01:20:15;;;;;;;40.13;22.07;;;4.10;94.20;;;;;;5115286;28;20027;-67
2021/01/11 01:22:45;;;;;;;44.43;23.13;;;4.10;94.50;;;;;;5115001;28;20097;-67
2021/01/11 01:25:11;;;;;;;40.57;21.13;;;4.10;94.30;;;;;;5114635;28;20492;-67
2021/01/11 01:27:37;;;;;;;41.70;21.20;;;4.10;94.30;;;;;;5080209;28;20027;-66
2021/01/11 01:30:03;;;;;;;43.60;21.23;;;4.10;94.20;;;;;;5096531;28;20400;-66
2021/01/11 01:32:29;;;;;;;40.87;22.97;;;4.10;94.20;;;;;;5114535;28;20087;-67
2021/01/11 01:34:55;;;;;;;40.97;20.90;;;4.10;94.30;;;;;;5114844;28;20035;-65
2021/01/11 01:37:20;;;;;;;37.43;20.20;;;4.10;94.30;;;;;;5114731;28;20035;-67
2021/01/11 01:39:46;;;;;;;40.50;21.50;;;4.10;94.30;;;;;;5114931;28;20032;-67
2021/01/11 01:42:12;;;;;;;38.43;21.10;;;4.10;94.30;;;;;;5095970;28;20055;-67
2021/01/11 01:44:37;;;;;;;40.60;21.83;;;4.10;94.30;;;;;;5096866;28;20446;-75
2021/01/11 01:47:03;;;;;;;39.17;20.17;;;4.10;94.30;;;;;;5096620;28;20046;-75
2021/01/11 01:49:29;;;;;;;39.70;20.93;;;4.10;94.30;;;;;;5095987;28;20404;-75
2021/01/11 01:51:55;;;;;;;41.07;20.83;;;4.10;94.30;;;;;;5114422;28;20366;-75
2021/01/11 01:54:21;;;;;;;39.10;20.30;;;4.10;94.30;;;;;;5113981;28;20572;-75
2021/01/11 01:56:47;;;;;;;40.03;20.73;;;4.10;94.40;;;;;;5114743;28;20078;-75
2021/01/11 01:59:14;;;;;;;39.00;20.20;;;4.10;94.40;;;;;;5114524;28;20035;-75
2021/01/11 02:01:40;;;;;;;38.63;20.07;;;4.10;94.40;;;;;;5095474;28;20039;-75
2021/01/11 02:04:06;;;;;;;38.13;20.50;;;4.10;94.40;;;;;;5114529;28;20525;-75
2021/01/11 02:06:37;;;;;;;36.03;19.13;;;4.10;94.50;;;;;;5095804;28;20068;-76
2021/01/11 02:09:08;;;;;;;37.83;19.93;;;4.10;94.40;;;;;;5114383;28;20039;-75
2021/01/11 02:11:50;;;;;;;35.97;20.00;;;4.10;94.50;;;;;;5095445;28;20063;-75
2021/01/11 02:14:48;;;;;;;36.67;18.93;;;4.10;94.40;;;;;;5095704;28;20028;-75
2021/01/11 02:17:21;;;;;;;38.87;19.03;;;4.10;94.50;;;;;;5114159;28;20031;-76
2021/01/11 02:20:04;;;;;;;35.67;19.30;;;4.10;94.50;;;;;;5095966;28;20084;-75
2021/01/11 02:22:53;;;;;;;37.20;18.97;;;4.10;94.50;;;;;;5113347;28;20027;-75
2021/01/11 02:25:42;;;;;;;36.23;18.63;;;4.10;94.50;;;;;;5113487;28;20043;-73
2021/01/11 02:28:36;;;;;;;36.20;18.70;;;4.20;94.50;;;;;;5113867;28;20043;-75
2021/01/11 02:31:05;;;;;;;36.67;18.80;;;4.20;94.70;;;;;;5101749;28;20051;-75
2021/01/11 02:33:33;;;;;;;36.20;18.53;;;4.20;94.50;;;;;;5113574;28;20020;-75
2021/01/11 02:36:01;;;;;;;40.70;19.63;;;4.20;94.50;;;;;;5113002;28;20112;-75
2021/01/11 02:38:29;;;;;;;38.67;19.73;;;4.10;94.50;;;;;;5113824;28;20035;-75
2021/01/11 02:40:55;;;;;;;40.13;20.60;;;4.20;94.50;;;;;;5113508;28;20024;-73
2021/01/11 02:43:21;;;;;;;42.93;22.00;;;4.20;94.50;;;;;;5095028;28;20036;-75
2021/01/11 02:45:46;;;;;;;44.07;22.13;;;4.20;94.50;;;;;;5113311;28;20042;-75
2021/01/11 02:48:24;;;;;;;43.77;22.90;;;4.20;94.50;;;;;;5094959;28;20122;-75
2021/01/11 02:51:08;;;;;;;51.13;23.97;;;4.20;94.50;;;;;;5113710;28;20036;-76
2021/01/11 02:53:44;;;;;;;48.97;24.43;;;4.20;94.50;;;;;;5112955;28;20046;-75
2021/01/11 02:56:17;;;;;;;58.60;27.57;;;4.20;94.60;;;;;;5113190;28;20392;-74
2021/01/11 02:58:58;;;;;;;57.17;26.60;;;4.20;94.50;;;;;;5112967;28;20027;-76
2021/01/11 03:01:28;;;;;;;53.70;26.92;;;4.20;94.50;;;;;;5113097;28;20039;-76
2021/01/11 03:03:56;;;;;;;60.10;28.55;;;4.20;94.50;;;;;;5112980;28;20400;-75
2021/01/11 03:06:31;;;;;;;59.97;28.23;;;4.20;94.60;;;;;;5113201;28;20028;-74
2021/01/11 03:09:07;;;;;;;61.97;28.77;;;4.20;94.50;;;;;;5094778;28;20039;-76
2021/01/11 03:11:36;;;;;;;61.17;29.10;;;4.20;94.60;;;;;;5094295;28;20040;-70
2021/01/11 03:14:05;;;;;;;68.37;30.70;;;4.20;94.50;;;;;;5113034;28;20047;-75
2021/01/11 03:16:31;;;;;;;62.27;28.77;;;4.20;94.50;;;;;;5112768;28;20039;-75
2021/01/11 03:18:56;;;;;;;62.30;28.27;;;4.20;94.50;;;;;;5112542;28;20032;-75
2021/01/11 03:21:22;;;;;;;64.60;29.60;;;4.20;94.60;;;;;;5113099;28;20480;-75
2021/01/11 03:23:48;;;;;;;62.73;29.53;;;4.20;94.60;;;;;;5094078;28;20345;-74
2021/01/11 03:26:24;;;;;;;65.47;30.60;;;4.20;94.60;;;;;;5112650;28;20400;-76
2021/01/11 03:28:49;;;;;;;64.30;29.17;;;4.20;94.50;;;;;;5112828;28;20044;-75
2021/01/11 03:31:15;;;;;;;69.23;31.53;;;4.20;94.50;;;;;;5094014;28;20046;-75
2021/01/11 03:33:41;;;;;;;73.00;33.43;;;4.20;94.50;;;;;;5111893;28;20378;-75
2021/01/11 03:36:07;;;;;;;75.23;33.47;;;4.20;94.50;;;;;;5093870;28;20040;-75
2021/01/11 03:38:32;;;;;;;70.77;33.63;;;4.20;94.50;;;;;;5112645;28;20036;-75
2021/01/11 03:41:03;;;;;;;81.90;35.73;;;4.10;94.50;;;;;;5112583;28;20476;-76
2021/01/11 03:43:29;;;;;;;;;;;4.10;94.60;;;;;;5094396;28;20038;-75
2021/01/11 03:45:55;;;;;;;76.50;34.47;;;4.10;94.50;;;;;;5112206;28;19919;-75
2021/01/11 03:48:21;;;;;;;85.33;36.50;;;4.10;94.60;;;;;;5093588;28;20408;-75
2021/01/11 03:50:48;;;;;;;83.00;35.90;;;4.10;94.70;;;;;;5077313;28;20039;-75
2021/01/11 03:53:14;;;;;;;84.63;37.17;;;4.10;94.70;;;;;;5093682;28;20458;-76
2021/01/11 03:55:40;;;;;;;83.20;35.27;;;4.10;94.70;;;;;;5111827;28;20119;-74
2021/01/11 03:58:07;;;;;;;74.50;33.60;;;4.10;94.70;;;;;;5112451;28;20035;-75
2021/01/11 04:00:33;;;;;;;75.13;33.53;;;4.10;94.70;;;;;;5111664;28;20039;-75
2021/01/11 04:02:59;;;;;;;72.30;34.27;;;4.10;94.70;;;;;;5111951;28;20163;-75
2021/01/11 04:05:26;;;;;;;70.10;32.40;;;4.10;94.70;;;;;;5111425;28;20135;-74
2021/01/11 04:07:52;;;;;;;64.80;29.97;;;4.10;94.70;;;;;;5112031;28;20043;-75
2021/01/11 04:10:18;;;;;;;66.57;33.43;;;4.20;94.70;;;;;;5111881;28;20034;-75
2021/01/11 04:12:44;;;;;;;70.83;33.13;;;4.10;94.60;;;;;;5110989;28;20492;-75
2021/01/11 04:15:10;;;;;;;65.37;31.30;;;4.10;94.60;;;;;;5111747;28;20114;-74
2021/01/11 04:17:35;;;;;;;68.03;31.17;;;4.10;94.60;;;;;;5111916;28;20044;-76
2021/01/11 04:20:03;;;;;;;68.63;32.10;;;4.10;94.60;;;;;;5111526;28;20458;-75
2021/01/11 04:22:28;;;;;;;61.40;30.30;;;4.00;94.60;;;;;;5111430;28;20047;-73
2021/01/11 04:24:54;;;;;;;67.67;30.33;;;4.00;94.60;;;;;;5092786;28;20448;-75
2021/01/11 04:27:20;;;;;;;60.70;30.40;;;4.10;94.70;;;;;;5093460;28;20040;-75
2021/01/11 04:29:46;;;;;;;62.43;30.00;;;4.10;94.70;;;;;;5111481;28;20529;-75
2021/01/11 04:32:11;;;;;;;58.17;29.40;;;4.00;94.70;;;;;;5110932;28;20048;-75
2021/01/11 04:34:37;;;;;;;56.80;28.03;;;4.10;94.70;;;;;;5093055;28;20032;-75
2021/01/11 04:37:03;;;;;;;57.20;27.67;;;4.00;94.70;;;;;;5111269;28;20042;-74
2021/01/11 04:39:29;;;;;;;62.23;29.13;;;4.00;94.70;;;;;;5111414;28;20396;-75
2021/01/11 04:41:55;;;;;;;59.53;27.97;;;4.10;94.70;;;;;;5111165;28;20556;-75
2021/01/11 04:44:21;;;;;;;59.30;28.43;;;4.10;94.70;;;;;;5110759;28;20024;-75
2021/01/11 04:46:49;;;;;;;58.13;27.77;;;4.00;94.70;;;;;;5092323;28;20028;-75
2021/01/11 04:49:15;;;;;;;61.20;29.57;;;4.10;94.70;;;;;;5092741;28;20461;-74
2021/01/11 04:51:41;;;;;;;59.17;29.80;;;4.10;94.70;;;;;;5092717;28;20078;-75
2021/01/11 04:54:08;;;;;;;61.47;28.87;;;4.10;94.80;;;;;;5076316;28;20055;-75
2021/01/11 04:56:41;;;;;;;61.07;28.37;;;4.10;94.70;;;;;;5110514;28;20039;-75
2021/01/11 04:59:08;;;;;;;53.73;28.23;;;4.10;94.70;;;;;;5093150;28;20549;-75
2021/01/11 05:01:35;;;;;;;55.07;27.77;;;4.10;94.70;;;;;;5075871;28;20035;-75
2021/01/11 05:04:02;;;;;;;60.17;28.57;;;4.10;94.60;;;;;;5111172;28;20043;-74
2021/01/11 05:06:28;;;;;;;63.90;29.00;;;4.10;94.70;;;;;;5092383;28;20063;-75
2021/01/11 05:09:07;;;;;;;62.00;29.90;;;4.10;94.70;;;;;;5110884;28;20020;-75
2021/01/11 05:11:34;;;;;;;61.47;28.57;;;4.00;94.80;;;;;;5092436;28;20108;-75
2021/01/11 05:14:00;;;;;;;67.73;30.10;;;4.00;94.60;;;;;;5092721;28;20511;-76
2021/01/11 05:16:25;;;;;;;61.03;30.07;;;4.10;94.70;;;;;;5111020;28;20051;-74
2021/01/11 05:18:54;;;;;;;65.83;30.60;;;4.00;94.70;;;;;;5091262;28;20050;-76
2021/01/11 05:21:38;;;;;;;66.17;30.57;;;4.10;94.90;;;;;;5110403;28;20134;-75
2021/01/11 05:24:27;;;;;;;63.17;29.97;;;4.10;94.90;;;;;;5109955;28;20049;-75
2021/01/11 05:26:53;;;;;;;63.07;30.73;;;4.10;94.80;;;;;;5110528;28;20048;-74
2021/01/11 05:29:18;;;;;;;68.60;31.07;;;4.10;94.60;;;;;;5092682;28;20044;-75
2021/01/11 05:31:58;;;;;;;65.47;29.67;;;4.10;94.70;;;;;;5092591;28;20039;-75
2021/01/11 05:34:51;;;;;;;65.00;30.43;;;4.00;94.70;;;;;;5075582;28;20024;-75
2021/01/11 05:37:35;;;;;;;67.00;29.80;;;4.10;94.70;;;;;;5110314;28;20385;-76
2021/01/11 05:40:13;;;;;;;67.13;29.87;;;4.10;94.80;;;;;;5092723;28;20032;-75
2021/01/11 05:42:39;;;;;;;63.00;29.47;;;4.10;94.70;;;;;;5110324;28;20027;-75
2021/01/11 05:45:12;;;;;;;58.87;29.40;;;4.10;94.70;;;;;;5092408;28;20078;-75
2021/01/11 05:47:59;;;;;;;59.10;29.23;;;4.10;94.70;;;;;;5092312;28;20504;-75
2021/01/11 05:50:33;;;;;;;58.33;29.93;;;4.10;94.70;;;;;;5110399;28;20453;-75
2021/01/11 05:52:59;;;;;;;65.87;30.47;;;4.10;94.70;;;;;;5110363;28;20120;-75
2021/01/11 05:55:34;;;;;;;62.03;29.90;;;4.10;94.70;;;;;;5109919;28;20495;-75
2021/01/11 05:58:04;;;;;;;66.47;30.50;;;4.10;94.70;;;;;;5113387;28;20435;-75
2021/01/11 06:00:36;;;;;;;63.73;31.63;;;4.10;94.70;;;;;;5096297;28;20111;-74
2021/01/11 06:03:03;;;;;;;62.80;30.77;;;4.10;94.70;;;;;;5095916;28;20107;-75
2021/01/11 06:05:30;;;;;;;59.00;29.40;;;4.10;94.70;;;;;;5114120;28;20482;-76
2021/01/11 06:07:57;;;;;;;59.97;29.47;;;4.10;94.70;;;;;;5113633;27;20118;-76
2021/01/11 06:10:24;;;;;;;62.17;30.00;;;4.10;94.60;;;;;;5096242;28;20089;-76
2021/01/11 06:12:50;;;;;;;58.60;29.20;;;4.10;94.60;;;;;;5095416;27;20043;-75
2021/01/11 06:15:19;;;;;;;53.97;28.00;;;4.10;94.80;;;;;;5113897;27;20419;-75
2021/01/11 06:17:48;;;;;;;55.17;26.50;;;4.10;94.60;;;;;;5112192;27;20039;-74
2021/01/11 06:20:24;;;;;;;51.20;26.27;;;4.10;94.60;;;;;;5112076;27;20447;-75
2021/01/11 06:22:50;;;;;;;49.87;25.23;;;4.10;94.60;;;;;;5075240;28;20043;-74
2021/01/11 06:25:25;;;;;;;49.67;24.97;;;4.00;94.50;;;;;;5093025;28;20036;-75
2021/01/11 06:27:59;;;;;;;50.27;26.43;;;4.00;94.50;;;;;;5093625;28;20040;-75
2021/01/11 06:30:34;;;;;;;41.50;20.87;;;4.00;94.60;;;;;;5093217;28;20169;-75
2021/01/11 06:33:08;;;;;;;46.67;23.30;;;4.00;94.60;;;;;;5093091;28;20493;-76
2021/01/11 06:35:42;;;;;;;41.97;20.83;;;4.00;94.60;;;;;;5073625;28;20126;-76
2021/01/11 06:38:22;;;;;;;42.53;21.30;;;4.00;94.50;;;;;;5093432;28;20044;-75
2021/01/11 06:41:15;;;;;;;39.43;20.70;;;4.00;94.50;;;;;;5093196;28;20032;-75
2021/01/11 06:43:45;;;;;;;37.47;19.60;;;3.90;94.50;;;;;;5073483;28;20039;-75
2021/01/11 06:46:42;;;;;;;38.60;20.00;;;3.90;94.50;;;;;;5093072;28;20035;-74
2021/01/11 06:49:25;;;;;;;32.53;18.57;;;3.90;94.60;;;;;;5092871;28;20040;-76
2021/01/11 06:52:02;;;;;;;33.10;17.83;;;3.90;94.60;;;;;;5108598;28;20236;-76
2021/01/11 06:54:41;;;;;;;33.00;18.03;;;3.90;94.60;;;;;;5092690;28;20105;-76
2021/01/11 06:57:17;;;;;;;33.77;17.40;;;3.90;94.50;;;;;;5092779;28;20032;-75
2021/01/11 06:59:46;;;;;;;29.77;16.27;;;3.90;94.50;;;;;;5093154;28;20040;-76
2021/01/11 07:02:20;;;;;;;30.33;16.73;;;3.90;94.50;;;;;;5092648;28;20519;-75
2021/01/11 07:04:46;;;;;;;30.70;16.37;;;3.80;94.50;;;;;;5092568;28;20051;-75
2021/01/11 07:07:39;;;;;;;27.87;15.20;;;3.80;94.50;;;;;;5092878;28;20042;-75
2021/01/11 07:10:05;;;;;;;29.87;16.40;;;3.80;94.50;;;;;;5072503;28;20052;-75
2021/01/11 07:12:31;;;;;;;28.30;15.67;;;3.80;94.50;;;;;;5092721;28;20061;-75
2021/01/11 07:15:05;;;;;;;29.67;16.20;;;3.80;94.50;;;;;;5092034;28;20165;-76
2021/01/11 07:17:42;;;;;;;29.07;16.30;;;3.80;94.40;;;;;;5074649;28;20042;-74
2021/01/11 07:20:15;;;;;;;27.77;14.93;;;3.80;94.50;;;;;;5092306;28;20459;-76
2021/01/11 07:22:47;;;;;;;24.90;14.60;;;3.70;94.50;;;;;;5092217;28;20046;-76
2021/01/11 07:25:22;;;;;;;25.57;13.70;;;3.80;94.50;;;;;;5104359;27;20411;-75
2021/01/11 07:27:55;;;;;;;27.77;14.30;;;3.70;94.40;;;;;;5074033;28;20036;-75
2021/01/11 07:30:20;;;;;;;26.17;13.90;;;3.70;94.40;;;;;;5110646;28;20043;-76
2021/01/11 07:32:46;;;;;;;26.73;14.83;;;3.70;94.40;;;;;;5077291;28;20043;-75
2021/01/11 07:35:12;;;;;;;29.27;15.53;;;3.60;94.30;;;;;;5093870;28;20039;-76
2021/01/11 07:37:38;;;;;;;26.07;14.83;;;3.60;94.30;;;;;;5094520;28;20060;-75
2021/01/11 07:40:06;;;;;;;27.07;15.23;;;3.60;94.40;;;;;;5091900;28;20035;-75
2021/01/11 07:42:32;;;;;;;25.93;14.60;;;3.60;94.50;;;;;;5111490;27;20040;-75
2021/01/11 07:45:09;;;;;;;25.00;13.70;;;3.60;94.40;;;;;;5112784;28;20435;-67
2021/01/11 07:47:36;;;;;;;25.23;14.03;;;3.60;94.40;;;;;;5093875;28;20126;-66
2021/01/11 07:50:03;;;;;;;25.23;14.17;;;3.60;94.40;;;;;;5112261;28;20122;-67
2021/01/11 07:52:29;;;;;;;25.80;14.20;;;3.60;94.50;;;;;;5093174;28;20039;-67
2021/01/11 07:55:00;;;;;;;23.87;14.23;;;3.60;94.50;;;;;;5108056;28;20031;-67
2021/01/11 07:57:28;;;;;;;25.10;14.80;;;3.60;94.40;;;;;;5112268;27;20035;-67
2021/01/11 08:00:11;;;;;;;25.87;14.63;;;3.60;94.40;;;;;;5111689;28;20621;-67
2021/01/11 08:02:45;;;;;;;25.40;14.40;;;3.60;94.30;;;;;;5111635;28;20380;-67
2021/01/11 08:05:25;;;;;;;26.08;14.77;;;3.60;94.40;;;;;;5112144;28;20031;-67
2021/01/11 08:08:07;;;;;;;25.95;14.80;;;3.50;94.30;;;;;;5093914;28;20039;-66
2021/01/11 08:10:34;;;;;;;28.50;15.87;;;3.50;94.30;;;;;;5093896;28;20047;-66
2021/01/11 08:13:07;;;;;;;24.87;14.23;;;3.50;94.30;;;;;;5103728;27;20085;-67
2021/01/11 08:15:33;;;;;;;25.57;15.10;;;3.50;94.30;;;;;;5110555;27;20423;-67
2021/01/11 08:18:02;;;;;;;26.97;15.03;;;3.50;94.30;;;;;;5111266;28;20039;-65
2021/01/11 08:20:28;;;;;;;26.13;15.43;;;3.40;94.30;;;;;;5111744;28;20058;-67
2021/01/11 08:22:54;;;;;;;27.23;15.77;;;3.40;94.40;;;;;;5093250;28;20039;-67
2021/01/11 08:25:20;;;;;;;27.10;15.37;;;3.40;94.40;;;;;;5092748;28;20032;-66
2021/01/11 08:27:50;;;;;;;25.67;14.77;;;3.50;94.60;;;;;;5111726;28;20055;-67
2021/01/11 08:30:23;;;;;;;24.33;14.50;;;3.40;94.40;;;;;;5111171;28;20040;-66
2021/01/11 08:32:50;;;;;;;25.93;15.13;;;3.50;94.40;;;;;;5111358;28;20046;-66
2021/01/11 08:35:19;;;;;;;26.73;15.07;;;3.50;94.40;;;;;;5092640;28;20032;-67
2021/01/11 08:37:46;;;;;;;26.07;15.43;;;3.50;94.40;;;;;;5093933;28;20036;-65
2021/01/11 08:40:19;;;;;;;24.57;14.93;;;3.50;94.40;;;;;;5110891;28;20042;-67
2021/01/11 08:42:46;;;;;;;27.20;14.97;;;3.50;94.40;;;;;;5111303;28;20496;-68
2021/01/11 08:45:30;;;;;;;26.83;15.63;;;3.50;94.40;;;;;;5109720;28;20072;-67
2021/01/11 08:48:00;;;;;;;27.97;16.10;;;3.50;94.40;;;;;;5090176;28;20119;-67
2021/01/11 08:50:26;;;;;;;26.48;15.45;;;3.50;94.30;;;;;;5109261;28;20039;-68
2021/01/11 08:52:52;;;;;;;28.07;17.07;;;3.50;94.30;;;;;;5106894;27;20504;-66
2021/01/11 08:55:19;;;;;;;28.47;16.17;;;3.50;94.40;;;;;;5110268;27;20035;-66
2021/01/11 08:57:58;;;;;;;28.73;16.30;;;3.60;94.40;;;;;;5092162;28;20058;-67
2021/01/11 09:00:25;;;;;;;26.57;15.90;;;3.60;94.40;;;;;;5087169;28;20403;-67
2021/01/11 09:02:51;;;;;;;29.57;16.90;;;3.60;94.30;;;;;;5109703;28;20108;-68
2021/01/11 09:05:26;;;;;;;29.37;17.23;;;3.60;94.30;;;;;;5087442;28;20031;-67
2021/01/11 09:07:53;;;;;;;28.63;16.97;;;3.60;94.40;;;;;;5090088;28;20045;-66
2021/01/11 09:10:22;;;;;;;30.43;17.33;;;3.60;94.30;;;;;;5075543;28;20474;-66
2021/01/11 09:12:49;;;;;;;29.90;17.60;;;3.60;94.30;;;;;;5109564;28;20047;-67
2021/01/11 09:15:24;;;;;;;31.90;18.80;;;3.50;94.30;;;;;;5107378;27;20039;-66
2021/01/11 09:18:05;;;;;;;35.90;19.70;;;3.50;94.30;;;;;;5104831;28;20027;-65
2021/01/11 09:20:38;;;;;;;34.28;19.13;;;3.50;94.40;;;;;;5110306;28;20038;-66
2021/01/11 09:23:04;;;;;;;36.90;20.07;;;3.60;94.30;;;;;;5110493;28;20027;-66
2021/01/11 09:25:32;;;;;;;41.13;22.27;;;3.50;94.30;;;;;;5110105;28;20084;-67
2021/01/11 09:28:00;;;;;;;39.13;21.47;;;3.50;94.40;;;;;;5110848;28;20463;-66
2021/01/11 09:30:27;;;;;;;38.67;21.53;;;3.60;94.40;;;;;;5091728;28;20076;-68
2021/01/11 09:32:54;;;;;;;37.77;21.37;;;3.60;94.60;;;;;;5112698;28;20071;-67
2021/01/11 09:35:20;;;;;;;44.47;22.77;;;3.60;94.30;;;;;;5114406;28;20055;-67
2021/01/11 09:37:46;;;;;;;43.87;23.23;;;3.70;94.30;;;;;;5114156;28;20119;-68
2021/01/11 09:40:12;;;;;;;42.63;22.30;;;3.70;94.30;;;;;;5114719;28;20077;-69
2021/01/11 09:42:39;;;;;;;43.07;22.07;;;3.70;94.40;;;;;;5113839;28;20070;-68
2021/01/11 09:45:06;;;;;;;45.00;23.63;;;3.80;94.40;;;;;;5111905;27;20042;-67
2021/01/11 09:47:33;;;;;;;45.80;23.57;;;3.80;94.30;;;;;;5114148;27;20035;-69
2021/01/11 09:50:00;;;;;;;47.00;23.70;;;3.80;94.40;;;;;;5113490;28;20051;-69
2021/01/11 09:52:26;;;;;;;45.90;23.57;;;3.80;94.20;;;;;;5092186;28;20099;-69
2021/01/11 09:54:52;;;;;;;48.20;24.53;;;3.80;94.20;;;;;;5112428;28;20135;-68
2021/01/11 09:57:19;;;;;;;47.57;23.47;;;3.80;94.10;;;;;;5114417;28;20039;-68
2021/01/11 09:59:45;;;;;;;47.50;23.87;;;3.80;94.20;;;;;;5113913;28;20062;-71
2021/01/11 10:02:11;;;;;;;51.53;24.47;;;3.80;94.20;;;;;;5113559;28;20936;-68
2021/01/11 10:04:37;;;;;;;49.37;24.10;;;3.80;94.10;;;;;;5114028;28;20035;-68
2021/01/11 10:07:07;;;;;;;51.67;25.17;;;3.70;94.10;;;;;;5113339;27;20065;-68
2021/01/11 10:09:34;;;;;;;48.92;24.13;;;3.80;94.20;;;;;;5107683;28;20036;-66
2021/01/11 10:12:05;;;;;;;48.27;23.53;;;3.80;94.20;;;;;;5089260;28;20040;-66
2021/01/11 10:14:32;;;;;;;44.72;22.83;;;3.70;94.10;;;;;;5110620;27;20038;-68
2021/01/11 10:16:58;;;;;;;46.57;22.97;;;3.70;94.20;;;;;;5113830;28;20100;-69
2021/01/11 10:19:27;;;;;;;45.20;22.00;;;3.70;94.20;;;;;;5113487;28;20031;-69
2021/01/11 10:21:53;;;;;;;47.90;22.07;;;3.70;94.20;;;;;;5113629;28;20116;-68
2021/01/11 10:24:21;;;;;;;46.53;22.57;;;3.70;94.10;;;;;;5113069;28;20031;-69
2021/01/11 10:26:49;;;;;;;47.23;22.17;;;3.70;94.30;;;;;;5113675;28;20039;-68
2021/01/11 10:29:16;;;;;;;45.50;22.20;;;3.70;94.30;;;;;;5096434;28;20438;-69
2021/01/11 10:31:47;;;;;;;44.97;22.13;;;3.70;94.20;;;;;;5113410;28;20085;-68
2021/01/11 10:34:16;;;;;;;48.78;22.65;;;3.70;94.20;;;;;;5113275;28;20043;-68
2021/01/11 10:36:47;;;;;;;47.10;22.73;;;3.70;94.20;;;;;;5113084;28;20044;-67
2021/01/11 10:39:14;;;;;;;47.30;21.60;;;3.70;94.20;;;;;;5113567;28;20035;-68
2021/01/11 10:41:41;;;;;;;43.90;20.90;;;3.60;94.10;;;;;;5094610;28;20489;-68
2021/01/11 10:44:09;;;;;;;45.00;21.50;;;3.60;94.20;;;;;;5093842;28;20488;-67
2021/01/11 10:46:36;;;;;;;44.33;20.97;;;3.60;94.20;;;;;;5110375;28;20118;-65
2021/01/11 10:49:03;;;;;;;44.57;21.27;;;3.60;94.20;;;;;;5101957;28;20047;-66
2021/01/11 10:51:32;;;;;;;47.10;21.37;;;3.60;94.30;;;;;;5108262;28;20447;-67
2021/01/11 10:53:58;;;;;;;46.27;20.77;;;3.60;94.40;;;;;;5095052;28;20035;-66
2021/01/11 10:56:24;;;;;;;44.23;20.43;;;3.70;94.40;;;;;;5094926;28;20480;-66
2021/01/11 10:58:50;;;;;;;41.03;19.37;;;3.70;94.30;;;;;;5110297;28;20081;-66
2021/01/11 11:01:16;;;;;;;42.27;19.63;;;3.70;94.10;;;;;;5113109;28;20034;-67
2021/01/11 11:03:42;;;;;;;43.63;19.87;;;3.60;94.10;;;;;;5094497;28;20191;-66
2021/01/11 11:06:09;;;;;;;43.40;20.07;;;3.60;94.10;;;;;;5112478;28;20179;-66
2021/01/11 11:08:35;;;;;;;42.03;19.47;;;3.60;94.30;;;;;;5094574;28;20152;-66
2021/01/11 11:11:01;;;;;;;39.00;18.87;;;3.60;94.30;;;;;;5094326;28;20122;-67
2021/01/11 11:13:27;;;;;;;41.30;19.43;;;3.60;94.40;;;;;;5112337;28;20093;-67
2021/01/11 11:15:54;;;;;;;40.07;18.70;;;3.70;94.40;;;;;;5112441;28;20040;-67
2021/01/11 11:18:20;;;;;;;40.27;18.67;;;3.70;94.30;;;;;;5112330;28;20040;-66
2021/01/11 11:20:47;;;;;;;37.57;17.40;;;3.70;94.30;;;;;;5088101;28;20100;-66
2021/01/11 11:23:13;;;;;;;38.43;18.00;;;3.70;94.10;;;;;;5087924;27;20039;-68
2021/01/11 11:25:45;;;;;;;36.00;17.00;;;3.70;94.10;;;;;;5076890;28;20127;-68
2021/01/11 11:28:13;;;;;;;33.10;16.20;;;3.70;94.10;;;;;;5094307;28;20055;-67
2021/01/11 11:30:39;;;;;;;32.50;16.17;;;3.70;94.20;;;;;;5093753;28;20087;-69
2021/01/11 11:33:05;;;;;;;36.87;17.20;;;3.60;94.00;;;;;;5112102;28;20500;-67
2021/01/11 11:35:31;;;;;;;37.57;16.93;;;3.60;94.00;;;;;;5090961;27;20500;-68
2021/01/11 11:37:57;;;;;;;35.50;17.00;;;3.60;94.00;;;;;;5112435;28;20147;-68
2021/01/11 11:40:24;;;;;;;32.43;16.93;;;3.50;94.00;;;;;;5112069;28;20036;-67
2021/01/11 11:42:50;;;;;;;32.87;16.33;;;3.50;94.00;;;;;;5111691;28;20039;-67
2021/01/11 11:45:18;;;;;;;35.63;16.73;;;3.50;94.10;;;;;;5110826;28;20063;-68
2021/01/11 11:47:44;;;;;;;34.63;16.77;;;3.50;94.20;;;;;;5110339;28;20035;-68
2021/01/11 11:50:13;;;;;;;31.10;16.30;;;3.60;94.20;;;;;;5112228;28;20127;-67
2021/01/11 11:52:39;;;;;;;31.10;15.60;;;3.50;94.20;;;;;;5092473;27;20042;-68
2021/01/11 11:55:08;;;;;;;31.70;16.03;;;3.60;94.10;;;;;;5111037;28;20031;-66
2021/01/11 11:57:34;;;;;;;26.40;13.03;;;3.50;94.10;;;;;;5092207;28;20061;-66
2021/01/11 12:00:01;;;;;;;31.03;16.33;;;3.50;94.20;;;;;;5093288;28;20043;-66
2021/01/11 12:02:26;;;;;;;30.57;16.03;;;3.60;94.20;;;;;;5111689;28;20122;-66
2021/01/11 12:04:52;;;;;;;31.77;17.53;;;3.60;94.10;;;;;;5111124;28;20127;-67
2021/01/11 12:07:19;;;;;;;31.70;15.97;;;3.50;94.10;;;;;;5060147;28;20369;-67
2021/01/11 12:09:45;;;;;;;31.13;16.00;;;3.50;94.10;;;;;;5076941;28;20043;-67
2021/01/11 12:12:14;;;;;;;31.73;16.63;;;3.50;94.20;;;;;;5075646;28;20434;-67
2021/01/11 12:14:40;;;;;;;29.77;15.03;;;3.60;94.20;;;;;;5111578;28;20031;-67
2021/01/11 12:17:07;;;;;;;34.13;16.30;;;3.50;94.10;;;;;;5111306;28;20035;-66
2021/01/11 12:19:33;;;;;;;33.57;17.67;;;3.50;94.20;;;;;;5111542;28;20042;-74
2021/01/11 12:21:59;;;;;;;35.63;17.83;;;3.60;94.20;;;;;;5110992;28;20118;-72
2021/01/11 12:24:25;;;;;;;35.07;18.90;;;3.50;94.00;;;;;;5092535;28;20518;-74
2021/01/11 12:26:51;;;;;;;36.87;18.67;;;3.50;94.00;;;;;;5111528;28;20031;-73
2021/01/11 12:29:17;;;;;;;37.13;19.07;;;3.50;94.00;;;;;;5075716;28;20050;-72
2021/01/11 12:31:44;;;;;;;35.53;18.23;;;3.50;94.10;;;;;;5110668;27;20036;-73
2021/01/11 12:34:11;;;;;;;36.00;18.20;;;3.50;94.10;;;;;;5092648;28;20063;-74
2021/01/11 12:36:38;;;;;;;39.40;19.47;;;3.50;94.40;;;;;;5110494;28;20035;-73
2021/01/11 12:39:08;;;;;;;36.63;19.23;;;3.50;94.10;;;;;;5102460;28;20088;-73
2021/01/11 12:41:35;;;;;;;35.40;19.57;;;3.50;94.10;;;;;;5092185;27;20081;-73
2021/01/11 12:44:01;;;;;;;36.77;18.87;;;3.60;94.20;;;;;;5107866;27;20488;-73
2021/01/11 12:46:27;;;;;;;35.87;19.70;;;3.60;94.20;;;;;;5110587;27;20484;-72
2021/01/11 12:48:53;;;;;;;36.77;19.47;;;3.60;94.10;;;;;;5086562;27;20034;-73